sensor_id;sensor_type;location;lat;lon;timestamp;pressure;altitude;pressure_sealevel;temperature;humidity
54592;BME280;40488;48.558;18.150;2024-01-30T00:01:11;101837.34;;;-1.12;82.16
54592;BME280;40488;48.558;18.150;2024-01-30T00:03:40;101834.22;;;-1.10;82.42
54592;BME280;40488;48.558;18.150;2024-01-30T00:06:09;101829.09;;;-1.01;82.20
54592;BME280;40488;48.558;18.150;2024-01-30T00:08:38;101832.97;;;-1.05;81.89
54592;BME280;40488;48.558;18.150;2024-01-30T00:11:07;101828.13;;;-1.13;82.39
54592;BME280;40488;48.558;18.150;2024-01-30T00:13:36;101828.59;;;-1.17;81.79
54592;BME280;40488;48.558;18.150;2024-01-30T00:16:07;101836.09;;;-1.17;82.11
54592;BME280;40488;48.558;18.150;2024-01-30T00:18:36;101839.25;;;-1.20;82.00
54592;BME280;40488;48.558;18.150;2024-01-30T00:21:07;101837.41;;;-1.22;81.97
54592;BME280;40488;48.558;18.150;2024-01-30T00:23:35;101830.13;;;-1.29;81.70
54592;BME280;40488;48.558;18.150;2024-01-30T00:26:04;101838.03;;;-1.25;81.73
54592;BME280;40488;48.558;18.150;2024-01-30T00:28:33;101830.13;;;-1.29;81.51
54592;BME280;40488;48.558;18.150;2024-01-30T00:31:02;101833.66;;;-1.27;81.70
54592;BME280;40488;48.558;18.150;2024-01-30T00:33:33;101837.25;;;-1.34;81.70
54592;BME280;40488;48.558;18.150;2024-01-30T00:36:02;101838.41;;;-1.30;81.80
54592;BME280;40488;48.558;18.150;2024-01-30T00:38:31;101844.16;;;-1.21;82.07
54592;BME280;40488;48.558;18.150;2024-01-30T00:41:00;101841.13;;;-1.17;82.03
54592;BME280;40488;48.558;18.150;2024-01-30T00:43:30;101845.13;;;-1.19;81.73
54592;BME280;40488;48.558;18.150;2024-01-30T00:45:59;101838.88;;;-1.24;82.00
54592;BME280;40488;48.558;18.150;2024-01-30T00:48:28;101842.25;;;-1.24;81.92
54592;BME280;40488;48.558;18.150;2024-01-30T00:50:58;101836.91;;;-1.28;81.90
54592;BME280;40488;48.558;18.150;2024-01-30T00:53:28;101840.13;;;-1.29;81.93
54592;BME280;40488;48.558;18.150;2024-01-30T00:55:57;101845.81;;;-1.32;81.97
54592;BME280;40488;48.558;18.150;2024-01-30T00:58:25;101844.91;;;-1.32;81.56
54592;BME280;40488;48.558;18.150;2024-01-30T01:00:54;101846.66;;;-1.31;81.71
54592;BME280;40488;48.558;18.150;2024-01-30T01:03:23;101837.88;;;-1.37;82.01
54592;BME280;40488;48.558;18.150;2024-01-30T01:05:52;101843.16;;;-1.44;81.94
54592;BME280;40488;48.558;18.150;2024-01-30T01:08:23;101842.94;;;-1.47;81.93
54592;BME280;40488;48.558;18.150;2024-01-30T01:10:52;101839.41;;;-1.39;81.80
54592;BME280;40488;48.558;18.150;2024-01-30T01:13:21;101837.53;;;-1.31;82.32
54592;BME280;40488;48.558;18.150;2024-01-30T01:15:50;101833.41;;;-1.30;82.32
54592;BME280;40488;48.558;18.150;2024-01-30T01:18:19;101834.03;;;-1.33;82.01
54592;BME280;40488;48.558;18.150;2024-01-30T01:20:48;101825.88;;;-1.41;82.30
54592;BME280;40488;48.558;18.150;2024-01-30T01:23:17;101840.78;;;-1.32;82.33
54592;BME280;40488;48.558;18.150;2024-01-30T01:25:48;101844.41;;;-1.28;82.36
54592;BME280;40488;48.558;18.150;2024-01-30T01:28:17;101841.66;;;-1.31;82.43
54592;BME280;40488;48.558;18.150;2024-01-30T01:30:46;101833.13;;;-1.23;82.62
54592;BME280;40488;48.558;18.150;2024-01-30T01:33:15;101829.13;;;-1.21;82.47
54592;BME280;40488;48.558;18.150;2024-01-30T01:35:44;101823.84;;;-1.24;82.69
54592;BME280;40488;48.558;18.150;2024-01-30T01:38:13;101832.50;;;-1.31;82.79
54592;BME280;40488;48.558;18.150;2024-01-30T01:40:41;101829.63;;;-1.36;82.54
54592;BME280;40488;48.558;18.150;2024-01-30T01:43:13;101818.75;;;-1.46;82.46
54592;BME280;40488;48.558;18.150;2024-01-30T01:45:43;101818.25;;;-1.42;82.38
54592;BME280;40488;48.558;18.150;2024-01-30T01:48:12;101822.38;;;-1.43;82.73
54592;BME280;40488;48.558;18.150;2024-01-30T01:50:42;101820.41;;;-1.47;82.47
54592;BME280;40488;48.558;18.150;2024-01-30T01:53:12;101796.50;;;-1.63;82.80
54592;BME280;40488;48.558;18.150;2024-01-30T01:55:41;101830.53;;;-1.35;83.27
54592;BME280;40488;48.558;18.150;2024-01-30T01:58:10;101827.63;;;-1.29;82.93
54592;BME280;40488;48.558;18.150;2024-01-30T02:00:42;101825.63;;;-1.23;83.01
54592;BME280;40488;48.558;18.150;2024-01-30T02:03:12;101835.38;;;-1.26;83.07
54592;BME280;40488;48.558;18.150;2024-01-30T02:05:42;101827.38;;;-1.22;83.22
54592;BME280;40488;48.558;18.150;2024-01-30T02:08:11;101827.59;;;-1.19;83.08
54592;BME280;40488;48.558;18.150;2024-01-30T02:10:40;101829.63;;;-1.15;83.09
54592;BME280;40488;48.558;18.150;2024-01-30T02:13:09;101820.59;;;-1.23;83.05
54592;BME280;40488;48.558;18.150;2024-01-30T02:15:38;101812.09;;;-1.25;83.46
54592;BME280;40488;48.558;18.150;2024-01-30T02:18:09;101818.84;;;-1.24;83.04
54592;BME280;40488;48.558;18.150;2024-01-30T02:20:38;101816.22;;;-1.26;83.07
54592;BME280;40488;48.558;18.150;2024-01-30T02:23:09;101824.88;;;-1.22;82.99
54592;BME280;40488;48.558;18.150;2024-01-30T02:25:39;101821.34;;;-1.24;82.98
54592;BME280;40488;48.558;18.150;2024-01-30T02:28:12;101828.50;;;-1.19;83.16
54592;BME280;40488;48.558;18.150;2024-01-30T02:30:43;101829.38;;;-1.18;83.44
54592;BME280;40488;48.558;18.150;2024-01-30T02:33:12;101812.34;;;-1.22;83.13
54592;BME280;40488;48.558;18.150;2024-01-30T02:35:41;101835.38;;;-1.16;83.24
54592;BME280;40488;48.558;18.150;2024-01-30T02:38:11;101821.59;;;-1.21;82.98
54592;BME280;40488;48.558;18.150;2024-01-30T02:40:40;101829.63;;;-1.15;83.21
54592;BME280;40488;48.558;18.150;2024-01-30T02:43:09;101829.09;;;-1.11;83.20
54592;BME280;40488;48.558;18.150;2024-01-30T02:45:38;101812.34;;;-1.22;82.81
54592;BME280;40488;48.558;18.150;2024-01-30T02:48:07;101829.63;;;-1.15;83.07
54592;BME280;40488;48.558;18.150;2024-01-30T02:50:36;101825.97;;;-1.19;83.03
54592;BME280;40488;48.558;18.150;2024-01-30T02:53:05;101824.84;;;-1.12;83.41
54592;BME280;40488;48.558;18.150;2024-01-30T02:55:35;101819.81;;;-1.12;83.26
54592;BME280;40488;48.558;18.150;2024-01-30T02:58:04;101812.56;;;-1.19;83.06
54592;BME280;40488;48.558;18.150;2024-01-30T03:00:34;101819.97;;;-1.21;83.11
54592;BME280;40488;48.558;18.150;2024-01-30T03:03:03;101826.34;;;-1.24;83.07
54592;BME280;40488;48.558;18.150;2024-01-30T03:05:32;101820.88;;;-1.20;82.94
54592;BME280;40488;48.558;18.150;2024-01-30T03:08:01;101824.09;;;-1.21;83.38
54592;BME280;40488;48.558;18.150;2024-01-30T03:10:30;101811.38;;;-1.34;83.19
54592;BME280;40488;48.558;18.150;2024-01-30T03:13:00;101818.75;;;-1.36;83.50
54592;BME280;40488;48.558;18.150;2024-01-30T03:15:29;101820.09;;;-1.29;83.56
54592;BME280;40488;48.558;18.150;2024-01-30T03:17:58;101805.31;;;-1.26;83.70
54592;BME280;40488;48.558;18.150;2024-01-30T03:20:27;101809.34;;;-1.18;83.60
54592;BME280;40488;48.558;18.150;2024-01-30T03:22:56;101795.56;;;-1.23;83.52
54592;BME280;40488;48.558;18.150;2024-01-30T03:25:25;101803.44;;;-1.29;83.60
54592;BME280;40488;48.558;18.150;2024-01-30T03:27:54;101799.94;;;-1.31;83.55
54592;BME280;40488;48.558;18.150;2024-01-30T03:30:24;101795.84;;;-1.41;83.47
54592;BME280;40488;48.558;18.150;2024-01-30T03:32:53;101797.72;;;-1.48;83.17
54592;BME280;40488;48.558;18.150;2024-01-30T03:35:22;101811.00;;;-1.49;82.98
54592;BME280;40488;48.558;18.150;2024-01-30T03:37:51;101801.63;;;-1.52;83.00
54592;BME280;40488;48.558;18.150;2024-01-30T03:40:20;101797.59;;;-1.60;82.94
54592;BME280;40488;48.558;18.150;2024-01-30T03:42:49;101801.09;;;-1.58;82.79
54592;BME280;40488;48.558;18.150;2024-01-30T03:45:18;101805.84;;;-1.61;83.01
54592;BME280;40488;48.558;18.150;2024-01-30T03:47:48;101800.84;;;-1.61;83.11
54592;BME280;40488;48.558;18.150;2024-01-30T03:50:17;101798.59;;;-1.68;82.84
54592;BME280;40488;48.558;18.150;2024-01-30T03:52:46;101803.38;;;-1.71;82.75
54592;BME280;40488;48.558;18.150;2024-01-30T03:55:15;101800.88;;;-1.81;82.43
54592;BME280;40488;48.558;18.150;2024-01-30T03:57:44;101797.59;;;-1.80;82.92
54592;BME280;40488;48.558;18.150;2024-01-30T04:00:14;101799.38;;;-1.79;82.60
54592;BME280;40488;48.558;18.150;2024-01-30T04:02:43;101802.13;;;-1.86;82.68
54592;BME280;40488;48.558;18.150;2024-01-30T04:05:15;101804.38;;;-1.79;82.71
54592;BME280;40488;48.558;18.150;2024-01-30T04:07:44;101800.09;;;-1.70;82.47
54592;BME280;40488;48.558;18.150;2024-01-30T04:10:13;101803.88;;;-1.65;82.99
54592;BME280;40488;48.558;18.150;2024-01-30T04:12:42;101805.84;;;-1.61;82.57
54592;BME280;40488;48.558;18.150;2024-01-30T04:15:11;101805.38;;;-1.57;82.81
54592;BME280;40488;48.558;18.150;2024-01-30T04:17:41;101805.63;;;-1.64;82.59
54592;BME280;40488;48.558;18.150;2024-01-30T04:20:15;101816.13;;;-1.58;83.20
54592;BME280;40488;48.558;18.150;2024-01-30T04:22:44;101812.25;;;-1.54;83.05
54592;BME280;40488;48.558;18.150;2024-01-30T04:25:13;101803.50;;;-1.49;82.88
54592;BME280;40488;48.558;18.150;2024-01-30T04:27:42;101800.38;;;-1.47;82.93
54592;BME280;40488;48.558;18.150;2024-01-30T04:30:11;101795.34;;;-1.47;83.20
54592;BME280;40488;48.558;18.150;2024-01-30T04:32:40;101803.34;;;-1.51;83.02
54592;BME280;40488;48.558;18.150;2024-01-30T04:35:09;101803.34;;;-1.51;83.21
54592;BME280;40488;48.558;18.150;2024-01-30T04:37:40;101814.75;;;-1.44;83.17
54592;BME280;40488;48.558;18.150;2024-01-30T04:40:10;101810.38;;;-1.47;83.41
54592;BME280;40488;48.558;18.150;2024-01-30T04:42:41;101816.13;;;-1.48;83.17
54592;BME280;40488;48.558;18.150;2024-01-30T04:45:09;101811.84;;;-1.49;83.49
54592;BME280;40488;48.558;18.150;2024-01-30T04:47:38;101813.63;;;-1.58;83.15
54592;BME280;40488;48.558;18.150;2024-01-30T04:50:08;101821.88;;;-1.49;83.49
54592;BME280;40488;48.558;18.150;2024-01-30T04:52:37;101820.88;;;-1.51;83.37
54592;BME280;40488;48.558;18.150;2024-01-30T04:55:08;101818.16;;;-1.54;83.49
54592;BME280;40488;48.558;18.150;2024-01-30T04:57:37;101823.16;;;-1.54;83.47
54592;BME280;40488;48.558;18.150;2024-01-30T05:00:07;101828.16;;;-1.54;83.54
54592;BME280;40488;48.558;18.150;2024-01-30T05:02:36;101827.13;;;-1.56;83.39
54592;BME280;40488;48.558;18.150;2024-01-30T05:05:05;101828.16;;;-1.54;83.70
54592;BME280;40488;48.558;18.150;2024-01-30T05:07:35;101821.66;;;-1.52;83.84
54592;BME280;40488;48.558;18.150;2024-01-30T05:10:04;101813.16;;;-1.54;83.47
54592;BME280;40488;48.558;18.150;2024-01-30T05:12:35;101826.66;;;-1.52;83.74
54592;BME280;40488;48.558;18.150;2024-01-30T05:15:04;101821.25;;;-1.46;83.76
54592;BME280;40488;48.558;18.150;2024-01-30T05:17:33;101824.16;;;-1.52;83.66
54592;BME280;40488;48.558;18.150;2024-01-30T05:20:03;101821.03;;;-1.49;83.89
54592;BME280;40488;48.558;18.150;2024-01-30T05:22:32;101822.38;;;-1.53;83.74
54592;BME280;40488;48.558;18.150;2024-01-30T05:25:01;101826.66;;;-1.52;83.95
54592;BME280;40488;48.558;18.150;2024-01-30T05:27:31;101829.28;;;-1.50;83.71
54592;BME280;40488;48.558;18.150;2024-01-30T05:30:01;101775.09;;;-1.90;83.62
54592;BME280;40488;48.558;18.150;2024-01-30T05:32:30;101829.41;;;-1.59;83.74
54592;BME280;40488;48.558;18.150;2024-01-30T05:34:59;101833.53;;;-1.59;83.48
54592;BME280;40488;48.558;18.150;2024-01-30T05:37:28;101830.88;;;-1.61;83.61
54592;BME280;40488;48.558;18.150;2024-01-30T05:39:57;101827.66;;;-1.60;83.88
54592;BME280;40488;48.558;18.150;2024-01-30T05:42:27;101831.91;;;-1.59;83.50
54592;BME280;40488;48.558;18.150;2024-01-30T05:44:56;101831.16;;;-1.58;83.74
54592;BME280;40488;48.558;18.150;2024-01-30T05:47:26;101822.00;;;-1.57;83.47
54592;BME280;40488;48.558;18.150;2024-01-30T05:49:55;101834.66;;;-1.56;83.23
54592;BME280;40488;48.558;18.150;2024-01-30T05:52:24;101834.91;;;-1.53;83.30
54592;BME280;40488;48.558;18.150;2024-01-30T05:54:53;101831.91;;;-1.59;83.55
54592;BME280;40488;48.558;18.150;2024-01-30T05:57:22;101830.88;;;-1.61;83.54
54592;BME280;40488;48.558;18.150;2024-01-30T05:59:50;101829.41;;;-1.59;83.16
54592;BME280;40488;48.558;18.150;2024-01-30T06:02:19;101834.41;;;-1.59;83.57
54592;BME280;40488;48.558;18.150;2024-01-30T06:04:50;101838.19;;;-1.54;83.84
54592;BME280;40488;48.558;18.150;2024-01-30T06:07:19;101835.91;;;-1.61;83.65
54592;BME280;40488;48.558;18.150;2024-01-30T06:09:48;101838.41;;;-1.61;83.69
54592;BME280;40488;48.558;18.150;2024-01-30T06:12:16;101831.66;;;-1.62;83.44
54592;BME280;40488;48.558;18.150;2024-01-30T06:14:45;101837.66;;;-1.60;83.57
54592;BME280;40488;48.558;18.150;2024-01-30T06:17:14;101838.28;;;-1.62;83.70
54592;BME280;40488;48.558;18.150;2024-01-30T06:19:43;101833.28;;;-1.62;84.14
54592;BME280;40488;48.558;18.150;2024-01-30T06:22:13;101835.66;;;-1.64;84.02
54592;BME280;40488;48.558;18.150;2024-01-30T06:24:42;101814.63;;;-1.76;83.75
54592;BME280;40488;48.558;18.150;2024-01-30T06:27:12;101831.91;;;-1.59;84.08
54592;BME280;40488;48.558;18.150;2024-01-30T06:29:42;101831.28;;;-1.66;83.80
54592;BME280;40488;48.558;18.150;2024-01-30T06:32:10;101835.91;;;-1.61;84.02
54592;BME280;40488;48.558;18.150;2024-01-30T06:34:40;101835.66;;;-1.64;84.00
54592;BME280;40488;48.558;18.150;2024-01-30T06:37:13;101833.91;;;-1.65;83.91
54592;BME280;40488;48.558;18.150;2024-01-30T06:39:42;101840.91;;;-1.61;83.83
54592;BME280;40488;48.558;18.150;2024-01-30T06:42:11;101837.91;;;-1.57;84.18
54592;BME280;40488;48.558;18.150;2024-01-30T06:44:40;101832.50;;;-1.51;84.14
54592;BME280;40488;48.558;18.150;2024-01-30T06:47:08;101837.53;;;-1.51;83.88
54592;BME280;40488;48.558;18.150;2024-01-30T06:49:38;101841.06;;;-1.49;84.08
54592;BME280;40488;48.558;18.150;2024-01-30T06:52:09;101840.91;;;-1.41;84.16
54592;BME280;40488;48.558;18.150;2024-01-30T06:54:40;101844.41;;;-1.39;84.03
54592;BME280;40488;48.558;18.150;2024-01-30T06:57:09;101840.91;;;-1.20;84.23
54592;BME280;40488;48.558;18.150;2024-01-30T06:59:39;101841.38;;;-1.04;84.03
54592;BME280;40488;48.558;18.150;2024-01-30T07:02:14;101848.13;;;-1.03;83.93
54592;BME280;40488;48.558;18.150;2024-01-30T07:04:45;101841.25;;;-1.06;83.99
54592;BME280;40488;48.558;18.150;2024-01-30T07:07:14;101842.34;;;-1.02;84.09
54592;BME280;40488;48.558;18.150;2024-01-30T07:09:45;101795.03;;;-1.19;84.07
54592;BME280;40488;48.558;18.150;2024-01-30T07:12:17;101843.94;;;-0.83;83.93
54592;BME280;40488;48.558;18.150;2024-01-30T07:14:45;101848.50;;;-0.67;83.94
54592;BME280;40488;48.558;18.150;2024-01-30T07:17:14;101840.59;;;-0.61;83.95
54592;BME280;40488;48.558;18.150;2024-01-30T07:19:43;101842.06;;;-0.43;84.20
54592;BME280;40488;48.558;18.150;2024-01-30T07:22:12;101836.56;;;-0.28;83.77
54592;BME280;40488;48.558;18.150;2024-01-30T07:24:42;101825.94;;;-0.14;84.16
54592;BME280;40488;48.558;18.150;2024-01-30T07:27:17;101836.91;;;-0.02;83.87
54592;BME280;40488;48.558;18.150;2024-01-30T07:29:46;101838.09;;;0.14;83.80
54592;BME280;40488;48.558;18.150;2024-01-30T07:32:14;101840.97;;;0.30;83.92
54592;BME280;40488;48.558;18.150;2024-01-30T07:34:43;101836.41;;;0.36;83.74
54592;BME280;40488;48.558;18.150;2024-01-30T07:37:32;101835.00;;;0.51;83.59
54592;BME280;40488;48.558;18.150;2024-01-30T07:40:02;101838.22;;;0.60;83.82
54592;BME280;40488;48.558;18.150;2024-01-30T07:42:33;101837.13;;;0.68;83.21
54592;BME280;40488;48.558;18.150;2024-01-30T07:45:03;101835.97;;;0.86;82.95
54592;BME280;40488;48.558;18.150;2024-01-30T07:47:32;101841.31;;;1.02;83.21
54592;BME280;40488;48.558;18.150;2024-01-30T07:50:01;101845.69;;;1.16;83.36
54592;BME280;40488;48.558;18.150;2024-01-30T07:52:30;101843.50;;;1.32;83.19
54592;BME280;40488;48.558;18.150;2024-01-30T07:54:58;101844.34;;;1.45;82.50
54592;BME280;40488;48.558;18.150;2024-01-30T07:57:27;101837.66;;;1.57;82.69
54592;BME280;40488;48.558;18.150;2024-01-30T07:59:57;101839.31;;;1.68;82.72
54592;BME280;40488;48.558;18.150;2024-01-30T08:02:26;101840.16;;;1.68;82.26
54592;BME280;40488;48.558;18.150;2024-01-30T08:04:55;101844.00;;;1.75;81.67
54592;BME280;40488;48.558;18.150;2024-01-30T08:07:24;101835.72;;;1.89;82.47
54592;BME280;40488;48.558;18.150;2024-01-30T08:09:52;101836.44;;;1.99;81.90
54592;BME280;40488;48.558;18.150;2024-01-30T08:12:21;101838.06;;;2.11;81.51
54592;BME280;40488;48.558;18.150;2024-01-30T08:14:50;101841.09;;;2.18;81.66
54592;BME280;40488;48.558;18.150;2024-01-30T08:17:20;101847.81;;;2.31;81.53
54592;BME280;40488;48.558;18.150;2024-01-30T08:19:49;101843.59;;;2.43;80.92
54592;BME280;40488;48.558;18.150;2024-01-30T08:22:20;101837.81;;;2.57;80.75
54592;BME280;40488;48.558;18.150;2024-01-30T08:24:49;101843.88;;;2.72;81.27
54592;BME280;40488;48.558;18.150;2024-01-30T08:27:18;101838.56;;;2.81;80.95
54592;BME280;40488;48.558;18.150;2024-01-30T08:29:47;101841.97;;;2.94;80.25
54592;BME280;40488;48.558;18.150;2024-01-30T08:32:17;101844.56;;;2.96;80.16
54592;BME280;40488;48.558;18.150;2024-01-30T08:34:47;101841.28;;;2.97;80.20
54592;BME280;40488;48.558;18.150;2024-01-30T08:37:16;101845.56;;;3.11;79.89
54592;BME280;40488;48.558;18.150;2024-01-30T08:39:45;101840.22;;;3.19;79.98
54592;BME280;40488;48.558;18.150;2024-01-30T08:42:14;101841.59;;;3.41;80.42
54592;BME280;40488;48.558;18.150;2024-01-30T08:44:45;101837.97;;;3.50;79.32
54592;BME280;40488;48.558;18.150;2024-01-30T08:47:14;101826.88;;;3.61;79.41
54592;BME280;40488;48.558;18.150;2024-01-30T08:49:47;101833.03;;;3.79;79.32
54592;BME280;40488;48.558;18.150;2024-01-30T08:52:16;101851.03;;;3.84;78.86
54592;BME280;40488;48.558;18.150;2024-01-30T08:54:45;101837.84;;;4.02;79.25
54592;BME280;40488;48.558;18.150;2024-01-30T08:57:14;101837.66;;;3.99;78.49
54592;BME280;40488;48.558;18.150;2024-01-30T08:59:43;101836.06;;;4.01;78.36
54592;BME280;40488;48.558;18.150;2024-01-30T09:02:13;101833.66;;;4.03;77.89
54592;BME280;40488;48.558;18.150;2024-01-30T09:04:44;101834.91;;;4.10;77.36
54592;BME280;40488;48.558;18.150;2024-01-30T09:07:15;101830.53;;;4.07;77.18
54592;BME280;40488;48.558;18.150;2024-01-30T09:09:44;101831.41;;;4.07;76.94
54592;BME280;40488;48.558;18.150;2024-01-30T09:12:13;101829.50;;;4.18;76.94
54592;BME280;40488;48.558;18.150;2024-01-30T09:14:42;101829.28;;;4.43;77.01
54592;BME280;40488;48.558;18.150;2024-01-30T09:17:10;101825.03;;;4.56;76.81
54592;BME280;40488;48.558;18.150;2024-01-30T09:19:40;101836.22;;;4.74;76.69
54592;BME280;40488;48.558;18.150;2024-01-30T09:22:09;101832.81;;;4.74;75.58
54592;BME280;40488;48.558;18.150;2024-01-30T09:24:40;101828.38;;;4.70;75.46
54592;BME280;40488;48.558;18.150;2024-01-30T09:27:09;101823.13;;;4.67;75.27
54592;BME280;40488;48.558;18.150;2024-01-30T09:29:38;101823.63;;;4.76;75.47
54592;BME280;40488;48.558;18.150;2024-01-30T09:32:07;101821.47;;;4.82;74.95
54592;BME280;40488;48.558;18.150;2024-01-30T09:34:38;101821.53;;;4.98;74.95
54592;BME280;40488;48.558;18.150;2024-01-30T09:37:07;101825.28;;;5.35;74.63
54592;BME280;40488;48.558;18.150;2024-01-30T09:39:36;101816.13;;;5.37;73.93
54592;BME280;40488;48.558;18.150;2024-01-30T09:42:15;101816.53;;;5.45;73.91
54592;BME280;40488;48.558;18.150;2024-01-30T09:44:47;101820.53;;;5.56;73.25
54592;BME280;40488;48.558;18.150;2024-01-30T09:47:19;101811.41;;;5.60;72.69
54592;BME280;40488;48.558;18.150;2024-01-30T09:49:48;101817.09;;;5.86;72.73
54592;BME280;40488;48.558;18.150;2024-01-30T09:52:17;101817.75;;;5.98;72.20
54592;BME280;40488;48.558;18.150;2024-01-30T09:54:48;101813.84;;;6.05;71.64
54592;BME280;40488;48.558;18.150;2024-01-30T09:57:20;101813.31;;;6.11;71.08
54592;BME280;40488;48.558;18.150;2024-01-30T09:59:49;101802.47;;;6.13;70.84
54592;BME280;40488;48.558;18.150;2024-01-30T10:02:18;101807.09;;;6.22;71.14
54592;BME280;40488;48.558;18.150;2024-01-30T10:04:48;101804.56;;;6.38;69.81
54592;BME280;40488;48.558;18.150;2024-01-30T10:07:17;101804.47;;;6.52;69.14
54592;BME280;40488;48.558;18.150;2024-01-30T10:09:46;101790.47;;;6.60;68.96
54592;BME280;40488;48.558;18.150;2024-01-30T10:12:16;101793.44;;;6.69;68.48
54592;BME280;40488;48.558;18.150;2024-01-30T10:14:47;101796.81;;;6.68;67.87
54592;BME280;40488;48.558;18.150;2024-01-30T10:17:15;101789.63;;;6.78;68.13
54592;BME280;40488;48.558;18.150;2024-01-30T10:19:59;101796.38;;;6.95;67.63
54592;BME280;40488;48.558;18.150;2024-01-30T10:22:29;101786.50;;;7.01;68.24
54592;BME280;40488;48.558;18.150;2024-01-30T10:24:58;101781.06;;;7.11;67.77
54592;BME280;40488;48.558;18.150;2024-01-30T10:27:33;101778.84;;;7.17;66.18
54592;BME280;40488;48.558;18.150;2024-01-30T10:30:05;101778.78;;;6.98;66.13
54592;BME280;40488;48.558;18.150;2024-01-30T10:32:34;101768.81;;;6.85;65.56
54592;BME280;40488;48.558;18.150;2024-01-30T10:35:04;101773.25;;;6.89;65.86
54592;BME280;40488;48.558;18.150;2024-01-30T10:37:33;101772.38;;;7.06;66.02
54592;BME280;40488;48.558;18.150;2024-01-30T10:40:04;101766.78;;;7.13;64.38
54592;BME280;40488;48.558;18.150;2024-01-30T10:42:36;101763.91;;;6.88;63.74
54592;BME280;40488;48.558;18.150;2024-01-30T10:45:09;101757.94;;;6.87;64.10
54592;BME280;40488;48.558;18.150;2024-01-30T10:47:40;101750.13;;;7.00;63.53
54592;BME280;40488;48.558;18.150;2024-01-30T10:50:09;101750.22;;;7.21;63.82
54592;BME280;40488;48.558;18.150;2024-01-30T10:52:41;101727.41;;;7.40;63.22
54592;BME280;40488;48.558;18.150;2024-01-30T10:55:11;101742.66;;;7.59;62.94
54592;BME280;40488;48.558;18.150;2024-01-30T10:57:40;101745.06;;;7.56;62.80
54592;BME280;40488;48.558;18.150;2024-01-30T11:00:13;101735.72;;;7.55;62.74
54592;BME280;40488;48.558;18.150;2024-01-30T11:02:45;101727.81;;;7.49;62.54
54592;BME280;40488;48.558;18.150;2024-01-30T11:05:14;101728.19;;;7.39;61.64
54592;BME280;40488;48.558;18.150;2024-01-30T11:07:43;101732.25;;;7.53;62.07
54592;BME280;40488;48.558;18.150;2024-01-30T11:10:12;101724.09;;;7.60;61.98
54592;BME280;40488;48.558;18.150;2024-01-30T11:12:43;101731.09;;;7.66;61.46
54592;BME280;40488;48.558;18.150;2024-01-30T11:15:17;101722.88;;;7.71;61.64
54592;BME280;40488;48.558;18.150;2024-01-30T11:17:51;101721.66;;;7.63;62.25
54592;BME280;40488;48.558;18.150;2024-01-30T11:20:21;101720.94;;;7.66;62.61
54592;BME280;40488;48.558;18.150;2024-01-30T11:22:52;101723.06;;;7.76;62.75
54592;BME280;40488;48.558;18.150;2024-01-30T11:25:23;101721.25;;;7.92;62.54
54592;BME280;40488;48.558;18.150;2024-01-30T11:27:55;101713.06;;;7.60;62.01
54592;BME280;40488;48.558;18.150;2024-01-30T11:30:26;101715.78;;;7.45;62.28
54592;BME280;40488;48.558;18.150;2024-01-30T11:33:02;101706.94;;;7.56;63.40
54592;BME280;40488;48.558;18.150;2024-01-30T11:35:36;101703.47;;;7.54;63.04
54592;BME280;40488;48.558;18.150;2024-01-30T11:38:08;101700.94;;;7.54;62.24
54592;BME280;40488;48.558;18.150;2024-01-30T11:40:38;101693.25;;;7.53;62.41
54592;BME280;40488;48.558;18.150;2024-01-30T11:43:08;101693.50;;;7.59;63.29
54592;BME280;40488;48.558;18.150;2024-01-30T11:45:39;101694.66;;;7.65;61.91
54592;BME280;40488;48.558;18.150;2024-01-30T11:48:08;101691.44;;;7.69;61.79
54592;BME280;40488;48.558;18.150;2024-01-30T11:50:39;101693.97;;;7.88;62.38
54592;BME280;40488;48.558;18.150;2024-01-30T11:53:09;101686.75;;;7.78;61.41
54592;BME280;40488;48.558;18.150;2024-01-30T11:55:38;101665.63;;;7.79;61.29
54592;BME280;40488;48.558;18.150;2024-01-30T11:58:07;101663.47;;;7.88;61.11
54592;BME280;40488;48.558;18.150;2024-01-30T12:00:36;101679.25;;;7.81;60.21
54592;BME280;40488;48.558;18.150;2024-01-30T12:03:06;101668.16;;;7.79;60.39
54592;BME280;40488;48.558;18.150;2024-01-30T12:05:35;101666.94;;;7.90;60.79
54592;BME280;40488;48.558;18.150;2024-01-30T12:08:15;101660.59;;;8.01;59.68
54592;BME280;40488;48.558;18.150;2024-01-30T12:10:44;101667.31;;;7.99;60.13
54592;BME280;40488;48.558;18.150;2024-01-30T12:13:14;101655.41;;;8.19;60.49
54592;BME280;40488;48.558;18.150;2024-01-30T12:15:43;101654.81;;;8.25;59.72
54592;BME280;40488;48.558;18.150;2024-01-30T12:18:13;101658.00;;;8.21;59.26
54592;BME280;40488;48.558;18.150;2024-01-30T12:20:42;101645.63;;;7.87;59.50
54592;BME280;40488;48.558;18.150;2024-01-30T12:23:12;101637.84;;;7.84;59.28
54592;BME280;40488;48.558;18.150;2024-01-30T12:25:41;101642.44;;;7.92;58.98
54592;BME280;40488;48.558;18.150;2024-01-30T12:28:10;101643.88;;;8.06;59.02
54592;BME280;40488;48.558;18.150;2024-01-30T12:30:39;101631.31;;;8.11;59.81
54592;BME280;40488;48.558;18.150;2024-01-30T12:33:08;101631.38;;;8.32;58.61
54592;BME280;40488;48.558;18.150;2024-01-30T12:35:39;101628.66;;;8.27;59.05
54592;BME280;40488;48.558;18.150;2024-01-30T12:38:21;101624.53;;;8.31;58.67
54592;BME280;40488;48.558;18.150;2024-01-30T12:40:54;101611.66;;;8.48;58.51
54592;BME280;40488;48.558;18.150;2024-01-30T12:43:25;101622.16;;;8.56;58.18
54592;BME280;40488;48.558;18.150;2024-01-30T12:46:05;101612.19;;;8.62;57.97
54592;BME280;40488;48.558;18.150;2024-01-30T12:48:34;101614.69;;;8.60;57.08
54592;BME280;40488;48.558;18.150;2024-01-30T12:51:05;101612.19;;;8.62;56.42
54592;BME280;40488;48.558;18.150;2024-01-30T12:53:34;101607.50;;;8.50;56.17
54592;BME280;40488;48.558;18.150;2024-01-30T12:56:03;101616.91;;;8.31;57.49
54592;BME280;40488;48.558;18.150;2024-01-30T12:58:34;101609.28;;;8.31;57.81